sensor_id;sensor_type;location;lat;lon;timestamp;P1;durP1;ratioP1;P2;durP2;ratioP2
18647;SDS011;9453;50.294;18.644;2023-03-01T05:05:50;100.37;;;33.77;;
18647;SDS011;9453;50.294;18.644;2023-03-01T05:08:34;95.00;;;33.00;;
18647;SDS011;9453;50.294;18.644;2023-03-01T05:11:11;101.67;;;34.97;;
18647;SDS011;9453;50.294;18.644;2023-03-01T05:14:05;103.47;;;33.90;;
18647;SDS011;9453;50.294;18.644;2023-03-01T05:16:33;97.07;;;35.00;;
18647;SDS011;9453;50.294;18.644;2023-03-01T05:19:04;103.43;;;35.13;;
18647;SDS011;9453;50.294;18.644;2023-03-01T05:21:42;97.57;;;34.17;;
18647;SDS011;9453;50.294;18.644;2023-03-01T05:24:32;89.07;;;32.90;;
18647;SDS011;9453;50.294;18.644;2023-03-01T05:27:24;101.97;;;34.63;;
18647;SDS011;9453;50.294;18.644;2023-03-01T05:31:10;95.37;;;31.73;;
18647;SDS011;9453;50.294;18.644;2023-03-01T05:33:05;100.97;;;33.73;;
18647;SDS011;9453;50.294;18.644;2023-03-01T05:35:47;82.93;;;29.40;;
18647;SDS011;9453;50.294;18.644;2023-03-01T05:38:26;81.80;;;30.30;;
18647;SDS011;9453;50.294;18.644;2023-03-01T05:42:12;91.43;;;31.97;;
18647;SDS011;9453;50.294;18.644;2023-03-01T05:44:11;97.57;;;32.83;;
18647;SDS011;9453;50.294;18.644;2023-03-01T05:47:12;83.23;;;32.27;;
18647;SDS011;9453;50.294;18.644;2023-03-01T05:50:24;94.30;;;35.63;;
18647;SDS011;9453;50.294;18.644;2023-03-01T05:53:03;101.70;;;37.23;;
18647;SDS011;9453;50.294;18.644;2023-03-01T05:55:44;92.03;;;32.97;;
18647;SDS011;9453;50.294;18.644;2023-03-01T06:01:33;83.77;;;28.77;;
18647;SDS011;9453;50.294;18.644;2023-03-01T06:04:38;78.27;;;28.70;;
18647;SDS011;9453;50.294;18.644;2023-03-01T06:14:12;71.90;;;27.70;;
18647;SDS011;9453;50.294;18.644;2023-03-01T06:16:42;81.47;;;30.63;;
18647;SDS011;9453;50.294;18.644;2023-03-01T06:26:44;106.10;;;36.23;;
18647;SDS011;9453;50.294;18.644;2023-03-01T06:29:23;98.77;;;36.17;;
18647;SDS011;9453;50.294;18.644;2023-03-01T06:31:57;91.10;;;33.37;;
18647;SDS011;9453;50.294;18.644;2023-03-01T06:34:26;88.63;;;30.60;;
18647;SDS011;9453;50.294;18.644;2023-03-01T06:37:00;88.03;;;31.77;;
18647;SDS011;9453;50.294;18.644;2023-03-01T06:39:32;90.63;;;31.47;;
18647;SDS011;9453;50.294;18.644;2023-03-01T06:45:50;101.13;;;35.13;;
18647;SDS011;9453;50.294;18.644;2023-03-01T06:48:22;113.73;;;40.97;;
18647;SDS011;9453;50.294;18.644;2023-03-01T06:51:11;98.60;;;35.67;;
18647;SDS011;9453;50.294;18.644;2023-03-01T06:53:38;103.97;;;35.80;;
18647;SDS011;9453;50.294;18.644;2023-03-01T06:56:12;100.50;;;36.07;;
18647;SDS011;9453;50.294;18.644;2023-03-01T06:59:26;88.73;;;32.30;;
18647;SDS011;9453;50.294;18.644;2023-03-01T07:01:50;99.17;;;36.53;;
18647;SDS011;9453;50.294;18.644;2023-03-01T07:04:19;91.50;;;34.83;;
18647;SDS011;9453;50.294;18.644;2023-03-01T07:07:01;100.80;;;38.10;;
18647;SDS011;9453;50.294;18.644;2023-03-01T07:09:54;125.70;;;43.70;;
18647;SDS011;9453;50.294;18.644;2023-03-01T07:12:21;114.60;;;41.07;;
18647;SDS011;9453;50.294;18.644;2023-03-01T07:15:06;105.50;;;37.17;;
18647;SDS011;9453;50.294;18.644;2023-03-01T07:20:19;102.47;;;35.77;;
18647;SDS011;9453;50.294;18.644;2023-03-01T07:22:49;109.53;;;37.80;;
18647;SDS011;9453;50.294;18.644;2023-03-01T07:25:29;102.67;;;35.53;;
18647;SDS011;9453;50.294;18.644;2023-03-01T07:28:19;98.00;;;32.77;;
18647;SDS011;9453;50.294;18.644;2023-03-01T07:30:50;98.57;;;33.23;;
18647;SDS011;9453;50.294;18.644;2023-03-01T07:33:42;86.53;;;33.17;;
18647;SDS011;9453;50.294;18.644;2023-03-01T07:36:28;87.07;;;31.77;;
18647;SDS011;9453;50.294;18.644;2023-03-01T07:39:29;90.90;;;33.67;;
18647;SDS011;9453;50.294;18.644;2023-03-01T07:42:02;99.77;;;35.90;;
18647;SDS011;9453;50.294;18.644;2023-03-01T07:44:34;96.80;;;34.43;;
18647;SDS011;9453;50.294;18.644;2023-03-01T07:47:12;94.50;;;35.23;;
18647;SDS011;9453;50.294;18.644;2023-03-01T07:49:48;99.87;;;35.63;;
18647;SDS011;9453;50.294;18.644;2023-03-01T07:52:26;94.90;;;34.60;;
18647;SDS011;9453;50.294;18.644;2023-03-01T07:55:02;102.83;;;36.17;;
18647;SDS011;9453;50.294;18.644;2023-03-01T07:57:56;92.00;;;32.17;;
18647;SDS011;9453;50.294;18.644;2023-03-01T08:00:36;106.00;;;37.27;;
18647;SDS011;9453;50.294;18.644;2023-03-01T08:03:05;86.40;;;30.47;;
18647;SDS011;9453;50.294;18.644;2023-03-01T08:05:51;88.47;;;32.43;;
18647;SDS011;9453;50.294;18.644;2023-03-01T08:08:18;105.30;;;36.17;;
18647;SDS011;9453;50.294;18.644;2023-03-01T08:10:55;113.57;;;42.10;;
18647;SDS011;9453;50.294;18.644;2023-03-01T08:13:34;106.87;;;39.60;;
18647;SDS011;9453;50.294;18.644;2023-03-01T08:16:08;122.80;;;43.40;;
18647;SDS011;9453;50.294;18.644;2023-03-01T08:18:43;124.47;;;45.50;;
18647;SDS011;9453;50.294;18.644;2023-03-01T08:21:21;101.93;;;38.70;;
18647;SDS011;9453;50.294;18.644;2023-03-01T08:24:00;117.57;;;41.87;;
18647;SDS011;9453;50.294;18.644;2023-03-01T08:26:45;101.33;;;37.00;;
18647;SDS011;9453;50.294;18.644;2023-03-01T08:29:31;90.93;;;36.10;;
18647;SDS011;9453;50.294;18.644;2023-03-01T08:32:16;114.20;;;39.37;;
18647;SDS011;9453;50.294;18.644;2023-03-01T08:34:53;112.73;;;36.80;;
18647;SDS011;9453;50.294;18.644;2023-03-01T08:37:41;104.03;;;37.27;;
18647;SDS011;9453;50.294;18.644;2023-03-01T08:40:11;110.40;;;38.43;;
18647;SDS011;9453;50.294;18.644;2023-03-01T08:42:54;113.33;;;38.70;;
18647;SDS011;9453;50.294;18.644;2023-03-01T08:45:45;109.13;;;38.83;;
18647;SDS011;9453;50.294;18.644;2023-03-01T08:49:04;106.40;;;36.73;;
18647;SDS011;9453;50.294;18.644;2023-03-01T08:51:52;90.57;;;32.60;;
18647;SDS011;9453;50.294;18.644;2023-03-01T08:54:43;82.53;;;30.43;;
18647;SDS011;9453;50.294;18.644;2023-03-01T08:57:43;50.43;;;21.10;;
18647;SDS011;9453;50.294;18.644;2023-03-01T09:00:19;44.83;;;17.73;;
18647;SDS011;9453;50.294;18.644;2023-03-01T09:03:03;35.03;;;13.43;;
18647;SDS011;9453;50.294;18.644;2023-03-01T09:05:36;40.80;;;16.60;;
18647;SDS011;9453;50.294;18.644;2023-03-01T09:08:08;38.33;;;15.37;;
18647;SDS011;9453;50.294;18.644;2023-03-01T09:10:41;46.30;;;16.60;;
18647;SDS011;9453;50.294;18.644;2023-03-01T09:13:15;55.10;;;21.17;;
18647;SDS011;9453;50.294;18.644;2023-03-01T09:15:42;50.83;;;17.07;;
18647;SDS011;9453;50.294;18.644;2023-03-01T09:18:09;46.77;;;16.00;;
18647;SDS011;9453;50.294;18.644;2023-03-01T09:20:38;45.37;;;16.03;;
18647;SDS011;9453;50.294;18.644;2023-03-01T09:23:21;37.83;;;14.77;;
18647;SDS011;9453;50.294;18.644;2023-03-01T09:26:08;43.50;;;15.30;;
18647;SDS011;9453;50.294;18.644;2023-03-01T09:28:48;38.43;;;14.87;;
18647;SDS011;9453;50.294;18.644;2023-03-01T09:31:30;39.77;;;14.60;;
18647;SDS011;9453;50.294;18.644;2023-03-01T09:34:00;31.50;;;14.00;;
18647;SDS011;9453;50.294;18.644;2023-03-01T09:36:49;34.23;;;13.30;;
18647;SDS011;9453;50.294;18.644;2023-03-01T09:39:16;35.60;;;13.10;;
18647;SDS011;9453;50.294;18.644;2023-03-01T09:42:02;56.07;;;19.83;;
18647;SDS011;9453;50.294;18.644;2023-03-01T09:44:34;54.17;;;20.80;;
18647;SDS011;9453;50.294;18.644;2023-03-01T09:47:35;52.70;;;19.90;;
18647;SDS011;9453;50.294;18.644;2023-03-01T09:50:09;46.57;;;18.97;;
18647;SDS011;9453;50.294;18.644;2023-03-01T09:53:02;50.73;;;18.27;;
18647;SDS011;9453;50.294;18.644;2023-03-01T09:55:34;42.57;;;17.10;;
18647;SDS011;9453;50.294;18.644;2023-03-01T10:01:21;45.20;;;17.90;;
18647;SDS011;9453;50.294;18.644;2023-03-01T10:04:41;43.40;;;16.40;;
18647;SDS011;9453;50.294;18.644;2023-03-01T10:07:27;40.60;;;16.23;;
18647;SDS011;9453;50.294;18.644;2023-03-01T10:09:59;38.83;;;15.50;;
18647;SDS011;9453;50.294;18.644;2023-03-01T10:12:33;44.77;;;15.80;;
18647;SDS011;9453;50.294;18.644;2023-03-01T10:15:10;31.63;;;13.70;;
18647;SDS011;9453;50.294;18.644;2023-03-01T10:17:41;36.53;;;14.60;;
18647;SDS011;9453;50.294;18.644;2023-03-01T10:20:15;35.97;;;13.93;;
18647;SDS011;9453;50.294;18.644;2023-03-01T10:22:49;30.30;;;13.33;;
18647;SDS011;9453;50.294;18.644;2023-03-01T10:25:25;38.03;;;14.93;;
18647;SDS011;9453;50.294;18.644;2023-03-01T10:28:10;41.03;;;14.97;;
18647;SDS011;9453;50.294;18.644;2023-03-01T10:31:00;33.87;;;13.90;;
18647;SDS011;9453;50.294;18.644;2023-03-01T10:33:32;32.70;;;13.40;;
18647;SDS011;9453;50.294;18.644;2023-03-01T10:36:20;30.53;;;12.47;;
18647;SDS011;9453;50.294;18.644;2023-03-01T10:38:59;27.77;;;13.37;;
18647;SDS011;9453;50.294;18.644;2023-03-01T10:41:37;33.77;;;12.30;;
18647;SDS011;9453;50.294;18.644;2023-03-01T10:44:34;34.33;;;14.30;;
18647;SDS011;9453;50.294;18.644;2023-03-01T10:47:36;37.77;;;15.13;;
18647;SDS011;9453;50.294;18.644;2023-03-01T10:50:30;39.10;;;14.67;;
18647;SDS011;9453;50.294;18.644;2023-03-01T10:53:04;37.10;;;14.10;;
18647;SDS011;9453;50.294;18.644;2023-03-01T10:55:45;34.73;;;13.83;;
18647;SDS011;9453;50.294;18.644;2023-03-01T10:58:22;33.93;;;14.43;;
18647;SDS011;9453;50.294;18.644;2023-03-01T11:01:24;33.87;;;13.53;;
18647;SDS011;9453;50.294;18.644;2023-03-01T11:06:44;34.47;;;13.97;;
18647;SDS011;9453;50.294;18.644;2023-03-01T11:09:31;35.70;;;14.07;;
18647;SDS011;9453;50.294;18.644;2023-03-01T11:12:04;35.97;;;13.90;;
18647;SDS011;9453;50.294;18.644;2023-03-01T11:14:45;32.27;;;13.77;;
18647;SDS011;9453;50.294;18.644;2023-03-01T11:17:15;34.40;;;13.33;;
18647;SDS011;9453;50.294;18.644;2023-03-01T11:22:46;29.40;;;12.07;;
18647;SDS011;9453;50.294;18.644;2023-03-01T11:25:23;30.40;;;13.03;;
18647;SDS011;9453;50.294;18.644;2023-03-01T11:27:52;33.10;;;13.53;;
18647;SDS011;9453;50.294;18.644;2023-03-01T11:30:22;31.80;;;12.33;;
18647;SDS011;9453;50.294;18.644;2023-03-01T11:33:30;35.07;;;13.27;;
18647;SDS011;9453;50.294;18.644;2023-03-01T11:36:11;29.33;;;11.93;;
18647;SDS011;9453;50.294;18.644;2023-03-01T11:39:00;29.40;;;11.50;;
18647;SDS011;9453;50.294;18.644;2023-03-01T11:41:43;30.10;;;11.40;;
18647;SDS011;9453;50.294;18.644;2023-03-01T11:44:21;30.03;;;10.93;;
18647;SDS011;9453;50.294;18.644;2023-03-01T11:50:11;26.70;;;10.43;;
18647;SDS011;9453;50.294;18.644;2023-03-01T11:52:54;26.97;;;10.63;;
18647;SDS011;9453;50.294;18.644;2023-03-01T11:55:36;30.23;;;12.07;;
18647;SDS011;9453;50.294;18.644;2023-03-01T11:58:27;28.33;;;11.27;;
18647;SDS011;9453;50.294;18.644;2023-03-01T12:01:11;28.50;;;11.90;;
18647;SDS011;9453;50.294;18.644;2023-03-01T12:07:18;40.27;;;12.80;;
18647;SDS011;9453;50.294;18.644;2023-03-01T12:10:02;27.23;;;11.97;;
18647;SDS011;9453;50.294;18.644;2023-03-01T12:12:48;29.73;;;12.00;;
18647;SDS011;9453;50.294;18.644;2023-03-01T12:15:59;25.53;;;10.77;;
18647;SDS011;9453;50.294;18.644;2023-03-01T12:18:47;35.30;;;12.13;;
18647;SDS011;9453;50.294;18.644;2023-03-01T12:21:30;29.23;;;12.63;;
18647;SDS011;9453;50.294;18.644;2023-03-01T12:24:20;30.70;;;11.33;;
18647;SDS011;9453;50.294;18.644;2023-03-01T12:27:17;24.43;;;11.43;;
18647;SDS011;9453;50.294;18.644;2023-03-01T12:29:59;29.20;;;12.13;;
18647;SDS011;9453;50.294;18.644;2023-03-01T12:32:40;28.77;;;12.53;;
18647;SDS011;9453;50.294;18.644;2023-03-01T12:35:22;34.17;;;12.53;;
18647;SDS011;9453;50.294;18.644;2023-03-01T12:38:05;28.17;;;11.67;;
18647;SDS011;9453;50.294;18.644;2023-03-01T12:41:01;29.70;;;12.43;;
18647;SDS011;9453;50.294;18.644;2023-03-01T12:43:52;28.70;;;11.73;;
18647;SDS011;9453;50.294;18.644;2023-03-01T12:46:52;36.13;;;13.43;;
18647;SDS011;9453;50.294;18.644;2023-03-01T12:49:35;29.60;;;11.93;;
18647;SDS011;9453;50.294;18.644;2023-03-01T12:52:17;30.60;;;11.93;;
18647;SDS011;9453;50.294;18.644;2023-03-01T12:54:49;28.90;;;11.40;;
18647;SDS011;9453;50.294;18.644;2023-03-01T12:57:26;25.57;;;11.47;;
18647;SDS011;9453;50.294;18.644;2023-03-01T13:00:15;27.03;;;12.37;;
18647;SDS011;9453;50.294;18.644;2023-03-01T13:02:57;32.37;;;11.90;;
18647;SDS011;9453;50.294;18.644;2023-03-01T13:05:41;27.20;;;10.97;;
18647;SDS011;9453;50.294;18.644;2023-03-01T13:08:16;28.63;;;11.53;;
18647;SDS011;9453;50.294;18.644;2023-03-01T13:10:48;27.73;;;11.37;;
18647;SDS011;9453;50.294;18.644;2023-03-01T13:13:22;30.37;;;11.80;;
18647;SDS011;9453;50.294;18.644;2023-03-01T13:19:13;29.60;;;13.63;;
18647;SDS011;9453;50.294;18.644;2023-03-01T13:25:10;28.47;;;10.70;;
18647;SDS011;9453;50.294;18.644;2023-03-01T13:27:55;22.27;;;9.33;;
18647;SDS011;9453;50.294;18.644;2023-03-01T13:30:55;27.97;;;10.67;;
18647;SDS011;9453;50.294;18.644;2023-03-01T13:33:56;32.67;;;12.07;;
18647;SDS011;9453;50.294;18.644;2023-03-01T13:39:29;23.93;;;11.23;;
18647;SDS011;9453;50.294;18.644;2023-03-01T13:42:00;26.80;;;11.50;;
18647;SDS011;9453;50.294;18.644;2023-03-01T13:44:29;27.63;;;11.17;;
18647;SDS011;9453;50.294;18.644;2023-03-01T13:47:03;24.87;;;11.03;;
18647;SDS011;9453;50.294;18.644;2023-03-01T13:49:44;42.57;;;11.80;;
18647;SDS011;9453;50.294;18.644;2023-03-01T13:52:30;28.93;;;11.00;;
18647;SDS011;9453;50.294;18.644;2023-03-01T13:55:05;27.77;;;10.37;;
18647;SDS011;9453;50.294;18.644;2023-03-01T13:57:43;27.47;;;10.87;;
18647;SDS011;9453;50.294;18.644;2023-03-01T14:03:11;35.60;;;11.63;;
18647;SDS011;9453;50.294;18.644;2023-03-01T14:05:41;32.90;;;11.37;;
18647;SDS011;9453;50.294;18.644;2023-03-01T14:08:20;27.70;;;11.30;;
18647;SDS011;9453;50.294;18.644;2023-03-01T14:11:02;30.13;;;11.80;;
18647;SDS011;9453;50.294;18.644;2023-03-01T14:13:52;24.70;;;10.83;;
18647;SDS011;9453;50.294;18.644;2023-03-01T14:16:32;26.30;;;9.57;;
18647;SDS011;9453;50.294;18.644;2023-03-01T14:19:12;21.07;;;9.87;;
18647;SDS011;9453;50.294;18.644;2023-03-01T14:21:44;28.97;;;11.73;;
18647;SDS011;9453;50.294;18.644;2023-03-01T14:24:16;27.87;;;10.13;;
18647;SDS011;9453;50.294;18.644;2023-03-01T14:26:44;26.17;;;10.90;;
18647;SDS011;9453;50.294;18.644;2023-03-01T14:29:24;28.53;;;10.97;;
18647;SDS011;9453;50.294;18.644;2023-03-01T14:31:53;24.87;;;9.70;;
18647;SDS011;9453;50.294;18.644;2023-03-01T14:34:20;25.53;;;9.73;;
18647;SDS011;9453;50.294;18.644;2023-03-01T14:36:50;20.40;;;9.47;;
18647;SDS011;9453;50.294;18.644;2023-03-01T14:39:17;21.67;;;9.67;;
18647;SDS011;9453;50.294;18.644;2023-03-01T14:41:46;24.60;;;9.33;;
18647;SDS011;9453;50.294;18.644;2023-03-01T14:44:15;21.93;;;9.60;;
18647;SDS011;9453;50.294;18.644;2023-03-01T14:46:51;25.33;;;9.60;;
18647;SDS011;9453;50.294;18.644;2023-03-01T14:49:20;23.10;;;10.27;;
18647;SDS011;9453;50.294;18.644;2023-03-01T14:51:53;22.03;;;8.87;;
18647;SDS011;9453;50.294;18.644;2023-03-01T14:54:25;22.27;;;9.20;;
18647;SDS011;9453;50.294;18.644;2023-03-01T14:56:57;21.90;;;8.57;;
18647;SDS011;9453;50.294;18.644;2023-03-01T14:59:27;21.97;;;8.27;;
18647;SDS011;9453;50.294;18.644;2023-03-01T15:01:55;19.97;;;8.30;;
18647;SDS011;9453;50.294;18.644;2023-03-01T15:04:23;16.73;;;8.13;;
18647;SDS011;9453;50.294;18.644;2023-03-01T15:06:53;24.53;;;8.67;;
18647;SDS011;9453;50.294;18.644;2023-03-01T15:09:30;23.00;;;8.77;;
18647;SDS011;9453;50.294;18.644;2023-03-01T15:12:00;18.20;;;8.03;;
18647;SDS011;9453;50.294;18.644;2023-03-01T15:14:39;25.40;;;8.77;;
18647;SDS011;9453;50.294;18.644;2023-03-01T15:17:19;22.20;;;8.30;;
18647;SDS011;9453;50.294;18.644;2023-03-01T15:19:53;19.97;;;8.20;;
18647;SDS011;9453;50.294;18.644;2023-03-01T15:22:22;26.07;;;8.57;;
18647;SDS011;9453;50.294;18.644;2023-03-01T15:24:51;31.47;;;9.23;;
18647;SDS011;9453;50.294;18.644;2023-03-01T15:27:20;25.17;;;9.23;;
18647;SDS011;9453;50.294;18.644;2023-03-01T15:29:50;23.17;;;9.67;;
18647;SDS011;9453;50.294;18.644;2023-03-01T15:32:26;24.40;;;9.97;;
18647;SDS011;9453;50.294;18.644;2023-03-01T15:34:55;30.40;;;9.10;;
18647;SDS011;9453;50.294;18.644;2023-03-01T15:37:37;20.67;;;8.97;;
18647;SDS011;9453;50.294;18.644;2023-03-01T15:40:17;21.20;;;8.97;;
18647;SDS011;9453;50.294;18.644;2023-03-01T15:42:46;22.80;;;8.77;;
18647;SDS011;9453;50.294;18.644;2023-03-01T15:45:21;24.70;;;8.63;;
18647;SDS011;9453;50.294;18.644;2023-03-01T15:47:51;22.43;;;9.43;;
18647;SDS011;9453;50.294;18.644;2023-03-01T15:50:21;29.77;;;10.07;;
18647;SDS011;9453;50.294;18.644;2023-03-01T15:52:50;19.70;;;8.93;;
18647;SDS011;9453;50.294;18.644;2023-03-01T15:55:18;21.10;;;8.60;;
18647;SDS011;9453;50.294;18.644;2023-03-01T15:57:47;20.60;;;8.40;;
18647;SDS011;9453;50.294;18.644;2023-03-01T16:00:15;17.53;;;7.80;;
18647;SDS011;9453;50.294;18.644;2023-03-01T16:02:44;21.10;;;8.47;;
18647;SDS011;9453;50.294;18.644;2023-03-01T16:05:17;23.57;;;9.20;;
18647;SDS011;9453;50.294;18.644;2023-03-01T16:07:46;16.20;;;7.40;;
18647;SDS011;9453;50.294;18.644;2023-03-01T16:10:14;21.60;;;7.97;;
18647;SDS011;9453;50.294;18.644;2023-03-01T16:12:42;19.07;;;8.13;;
18647;SDS011;9453;50.294;18.644;2023-03-01T16:15:11;19.77;;;8.07;;
18647;SDS011;9453;50.294;18.644;2023-03-01T16:17:43;18.70;;;7.80;;
18647;SDS011;9453;50.294;18.644;2023-03-01T16:20:10;19.77;;;8.17;;
18647;SDS011;9453;50.294;18.644;2023-03-01T16:22:40;18.73;;;8.00;;
18647;SDS011;9453;50.294;18.644;2023-03-01T16:25:08;23.40;;;8.20;;
18647;SDS011;9453;50.294;18.644;2023-03-01T16:27:37;26.60;;;9.67;;
18647;SDS011;9453;50.294;18.644;2023-03-01T16:30:05;29.33;;;10.70;;
18647;SDS011;9453;50.294;18.644;2023-03-01T16:32:33;32.67;;;11.33;;
18647;SDS011;9453;50.294;18.644;2023-03-01T16:35:04;49.13;;;15.83;;
18647;SDS011;9453;50.294;18.644;2023-03-01T16:37:32;63.67;;;20.77;;
18647;SDS011;9453;50.294;18.644;2023-03-01T16:39:59;47.30;;;16.03;;
18647;SDS011;9453;50.294;18.644;2023-03-01T16:42:27;43.23;;;14.83;;
18647;SDS011;9453;50.294;18.644;2023-03-01T16:44:56;47.27;;;13.27;;
18647;SDS011;9453;50.294;18.644;2023-03-01T16:47:23;40.53;;;13.23;;
18647;SDS011;9453;50.294;18.644;2023-03-01T16:49:51;30.73;;;11.73;;
18647;SDS011;9453;50.294;18.644;2023-03-01T16:52:18;31.60;;;11.97;;
18647;SDS011;9453;50.294;18.644;2023-03-01T16:54:45;24.93;;;10.00;;
18647;SDS011;9453;50.294;18.644;2023-03-01T16:57:12;25.20;;;9.80;;
18647;SDS011;9453;50.294;18.644;2023-03-01T16:59:39;28.17;;;10.60;;
18647;SDS011;9453;50.294;18.644;2023-03-01T17:02:09;27.57;;;9.93;;
18647;SDS011;9453;50.294;18.644;2023-03-01T17:04:38;23.00;;;9.83;;
18647;SDS011;9453;50.294;18.644;2023-03-01T17:07:06;28.87;;;9.37;;
18647;SDS011;9453;50.294;18.644;2023-03-01T17:09:34;25.00;;;10.20;;
18647;SDS011;9453;50.294;18.644;2023-03-01T17:12:02;29.75;;;11.55;;
18647;SDS011;9453;50.294;18.644;2023-03-01T17:14:29;34.83;;;10.97;;
18647;SDS011;9453;50.294;18.644;2023-03-01T17:16:56;36.83;;;12.87;;
18647;SDS011;9453;50.294;18.644;2023-03-01T17:19:25;29.57;;;11.80;;
18647;SDS011;9453;50.294;18.644;2023-03-01T17:21:52;33.53;;;12.80;;
18647;SDS011;9453;50.294;18.644;2023-03-01T17:24:19;39.73;;;13.97;;
18647;SDS011;9453;50.294;18.644;2023-03-01T17:26:46;44.80;;;17.20;;
18647;SDS011;9453;50.294;18.644;2023-03-01T17:29:13;50.00;;;17.67;;
18647;SDS011;9453;50.294;18.644;2023-03-01T17:31:42;42.17;;;16.27;;
18647;SDS011;9453;50.294;18.644;2023-03-01T17:34:09;42.67;;;16.23;;
18647;SDS011;9453;50.294;18.644;2023-03-01T17:36:38;53.43;;;19.20;;
18647;SDS011;9453;50.294;18.644;2023-03-01T17:39:08;47.97;;;17.70;;
18647;SDS011;9453;50.294;18.644;2023-03-01T17:41:35;58.20;;;21.13;;
18647;SDS011;9453;50.294;18.644;2023-03-01T17:44:02;60.13;;;17.87;;
18647;SDS011;9453;50.294;18.644;2023-03-01T17:46:30;48.47;;;17.63;;
18647;SDS011;9453;50.294;18.644;2023-03-01T17:48:57;43.57;;;16.57;;
18647;SDS011;9453;50.294;18.644;2023-03-01T17:51:24;41.57;;;16.27;;
18647;SDS011;9453;50.294;18.644;2023-03-01T17:53:52;40.73;;;16.57;;
18647;SDS011;9453;50.294;18.644;2023-03-01T17:56:19;46.73;;;16.73;;
18647;SDS011;9453;50.294;18.644;2023-03-01T17:58:46;48.17;;;18.10;;
18647;SDS011;9453;50.294;18.644;2023-03-01T18:01:14;48.87;;;18.07;;
18647;SDS011;9453;50.294;18.644;2023-03-01T18:03:43;48.20;;;18.40;;
18647;SDS011;9453;50.294;18.644;2023-03-01T18:06:11;52.43;;;19.57;;
18647;SDS011;9453;50.294;18.644;2023-03-01T18:08:39;50.73;;;19.37;;
18647;SDS011;9453;50.294;18.644;2023-03-01T18:11:08;60.80;;;22.73;;
18647;SDS011;9453;50.294;18.644;2023-03-01T18:13:35;61.97;;;23.40;;
18647;SDS011;9453;50.294;18.644;2023-03-01T18:16:03;59.77;;;22.73;;
18647;SDS011;9453;50.294;18.644;2023-03-01T18:18:31;61.87;;;22.07;;
18647;SDS011;9453;50.294;18.644;2023-03-01T18:20:58;71.77;;;25.23;;
18647;SDS011;9453;50.294;18.644;2023-03-01T18:23:26;77.83;;;28.27;;
18647;SDS011;9453;50.294;18.644;2023-03-01T18:25:56;58.77;;;22.17;;
18647;SDS011;9453;50.294;18.644;2023-03-01T18:28:25;56.07;;;22.43;;
18647;SDS011;9453;50.294;18.644;2023-03-01T18:30:54;65.93;;;25.47;;
18647;SDS011;9453;50.294;18.644;2023-03-01T18:33:22;77.73;;;25.13;;
18647;SDS011;9453;50.294;18.644;2023-03-01T18:35:49;75.43;;;26.07;;
18647;SDS011;9453;50.294;18.644;2023-03-01T18:38:16;91.50;;;29.60;;
18647;SDS011;9453;50.294;18.644;2023-03-01T18:40:43;87.20;;;33.37;;
18647;SDS011;9453;50.294;18.644;2023-03-01T18:43:10;84.73;;;30.73;;
18647;SDS011;9453;50.294;18.644;2023-03-01T18:45:39;81.80;;;29.30;;
18647;SDS011;9453;50.294;18.644;2023-03-01T18:48:09;69.77;;;25.27;;
18647;SDS011;9453;50.294;18.644;2023-03-01T18:50:36;67.83;;;26.57;;
18647;SDS011;9453;50.294;18.644;2023-03-01T18:53:03;72.73;;;28.27;;
18647;SDS011;9453;50.294;18.644;2023-03-01T18:55:30;80.40;;;26.10;;
18647;SDS011;9453;50.294;18.644;2023-03-01T18:58:00;72.40;;;25.57;;
18647;SDS011;9453;50.294;18.644;2023-03-01T19:00:27;67.03;;;24.40;;
18647;SDS011;9453;50.294;18.644;2023-03-01T19:02:56;62.00;;;22.73;;
18647;SDS011;9453;50.294;18.644;2023-03-01T19:05:25;62.90;;;24.73;;
18647;SDS011;9453;50.294;18.644;2023-03-01T19:07:52;59.83;;;24.07;;
18647;SDS011;9453;50.294;18.644;2023-03-01T19:10:19;70.93;;;24.03;;
18647;SDS011;9453;50.294;18.644;2023-03-01T19:12:46;57.23;;;21.57;;
18647;SDS011;9453;50.294;18.644;2023-03-01T19:15:13;57.07;;;22.00;;
18647;SDS011;9453;50.294;18.644;2023-03-01T19:17:41;67.03;;;23.80;;
18647;SDS011;9453;50.294;18.644;2023-03-01T19:20:10;75.20;;;25.67;;
18647;SDS011;9453;50.294;18.644;2023-03-01T19:22:37;72.00;;;24.80;;
18647;SDS011;9453;50.294;18.644;2023-03-01T19:25:05;69.13;;;23.83;;
18647;SDS011;9453;50.294;18.644;2023-03-01T19:27:33;74.53;;;25.43;;
18647;SDS011;9453;50.294;18.644;2023-03-01T19:30:00;71.33;;;24.60;;
18647;SDS011;9453;50.294;18.644;2023-03-01T19:32:27;80.10;;;29.33;;
18647;SDS011;9453;50.294;18.644;2023-03-01T19:34:54;70.33;;;23.50;;
18647;SDS011;9453;50.294;18.644;2023-03-01T19:37:22;82.20;;;26.43;;
18647;SDS011;9453;50.294;18.644;2023-03-01T19:39:49;70.80;;;23.37;;
18647;SDS011;9453;50.294;18.644;2023-03-01T19:42:16;60.17;;;21.20;;
18647;SDS011;9453;50.294;18.644;2023-03-01T19:44:43;48.60;;;18.50;;
18647;SDS011;9453;50.294;18.644;2023-03-01T19:47:11;52.03;;;19.57;;
18647;SDS011;9453;50.294;18.644;2023-03-01T19:49:38;65.97;;;21.00;;
18647;SDS011;9453;50.294;18.644;2023-03-01T19:52:06;67.17;;;23.63;;
18647;SDS011;9453;50.294;18.644;2023-03-01T19:54:34;65.03;;;24.00;;
18647;SDS011;9453;50.294;18.644;2023-03-01T19:57:02;81.13;;;25.40;;
18647;SDS011;9453;50.294;18.644;2023-03-01T19:59:29;78.03;;;26.07;;
18647;SDS011;9453;50.294;18.644;2023-03-01T20:01:56;65.27;;;22.17;;
18647;SDS011;9453;50.294;18.644;2023-03-01T20:04:22;61.53;;;22.30;;
18647;SDS011;9453;50.294;18.644;2023-03-01T20:06:49;62.60;;;21.97;;
18647;SDS011;9453;50.294;18.644;2023-03-01T20:09:16;78.67;;;26.00;;
18647;SDS011;9453;50.294;18.644;2023-03-01T20:11:45;98.03;;;32.17;;
18647;SDS011;9453;50.294;18.644;2023-03-01T20:14:12;79.57;;;26.97;;
18647;SDS011;9453;50.294;18.644;2023-03-01T20:16:39;69.07;;;25.27;;
18647;SDS011;9453;50.294;18.644;2023-03-01T20:19:06;54.23;;;21.53;;
18647;SDS011;9453;50.294;18.644;2023-03-01T20:21:33;66.40;;;24.40;;
18647;SDS011;9453;50.294;18.644;2023-03-01T20:24:00;79.97;;;26.33;;
18647;SDS011;9453;50.294;18.644;2023-03-01T20:26:27;83.93;;;25.90;;
18647;SDS011;9453;50.294;18.644;2023-03-01T20:28:56;73.60;;;26.60;;
18647;SDS011;9453;50.294;18.644;2023-03-01T20:31:23;74.80;;;25.83;;
18647;SDS011;9453;50.294;18.644;2023-03-01T20:33:53;85.87;;;26.57;;
18647;SDS011;9453;50.294;18.644;2023-03-01T20:36:22;73.73;;;26.17;;
18647;SDS011;9453;50.294;18.644;2023-03-01T20:38:50;73.07;;;25.53;;
18647;SDS011;9453;50.294;18.644;2023-03-01T20:41:18;74.77;;;27.40;;
18647;SDS011;9453;50.294;18.644;2023-03-01T20:43:45;85.27;;;26.73;;
18647;SDS011;9453;50.294;18.644;2023-03-01T20:46:20;76.27;;;25.90;;
18647;SDS011;9453;50.294;18.644;2023-03-01T20:48:49;83.57;;;28.63;;
18647;SDS011;9453;50.294;18.644;2023-03-01T20:51:17;83.63;;;26.70;;
18647;SDS011;9453;50.294;18.644;2023-03-01T20:53:44;82.33;;;26.40;;
18647;SDS011;9453;50.294;18.644;2023-03-01T20:56:12;73.13;;;25.90;;
18647;SDS011;9453;50.294;18.644;2023-03-01T20:58:40;76.67;;;25.47;;
18647;SDS011;9453;50.294;18.644;2023-03-01T21:01:08;73.33;;;23.90;;
18647;SDS011;9453;50.294;18.644;2023-03-01T21:03:38;64.80;;;22.00;;
18647;SDS011;9453;50.294;18.644;2023-03-01T21:06:05;65.73;;;23.33;;